Latest Weather Observations for Cape Leeuwin

IDW60801

Issued at 3:05 pm WST Monday 21 April 2014 (issued every 30 minutes, with the page automatically refreshed every 10 minutes)

About weather observations | Map of weather stations | Latest weather observations for WA | Other Formats
Station Details ID: 009518 Name: CAPE LEEUWIN Lat: -34.37 Lon: 115.14 Height: 13.0 m
Data from the previous 72 hours. | See also: Recent months at Cape Leeuwin
Date/Time
WST
Temp
°C
App
Temp
°C
Dew
Point
Rel
Hum
%
Delta-T
°C
Wind Press
QNH
hPa
Press
MSL
hPa
Rain
since 9 am
mm
Dir
 
Spd
km/h
Gust
km/h
Spd
kts
Gust
kts
21/03:00pm 19.7 16.1 8.3 47 5.9 SW 17 26 9 14 1020.3 1020.2 0.0
21/02:30pm 19.6 16.0 6.6 42 6.5 SSW 15 24 8 13 1020.3 - 0.0
21/02:00pm 19.8 15.5 7.2 44 6.4 SW 19 28 10 15 1020.1 - 0.0
21/01:30pm 19.1 15.0 6.4 43 6.3 SW 17 20 9 11 1020.0 - 0.0
21/01:00pm 18.9 15.5 6.1 43 6.3 SW 13 19 7 10 1020.0 - 0.0
21/12:30pm 19.9 16.5 5.7 39 7.0 SW 13 17 7 9 1020.2 - 0.0
21/12:00pm 18.6 14.9 6.5 45 6.0 SSW 15 20 8 11 1020.3 1020.2 0.0
21/11:30am 19.3 16.1 6.7 44 6.3 SSW 13 17 7 9 1020.5 - 0.0
21/11:00am 19.2 15.4 7.6 47 5.9 SSW 17 24 9 13 1020.6 - 0.0
21/10:30am 17.5 13.2 8.0 53 4.8 S 20 26 11 14 1020.6 - 0.0
21/10:00am 17.8 13.8 9.1 56 4.5 SSW 20 28 11 15 1020.6 - 0.0
21/09:30am 17.8 14.0 7.5 51 5.2 S 17 24 9 13 1020.5 - 0.0
21/09:00am 17.0 13.0 8.1 55 4.5 SSW 19 24 10 13 1020.3 1020.2 1.0
21/08:30am 16.8 12.6 8.3 57 4.3 SSW 20 28 11 15 1020.0 - 1.0
21/08:00am 16.5 12.4 8.0 57 4.3 SSW 19 24 10 13 1019.6 - 1.0
21/07:30am 16.1 11.9 8.4 60 3.9 SSW 20 26 11 14 1019.2 - 1.0
21/07:00am 15.9 11.7 8.2 60 3.9 SSW 20 26 11 14 1018.9 - 1.0
21/06:30am 15.6 11.7 8.5 62 3.6 SW 19 22 10 12 1018.8 - 1.0
21/06:00am 15.4 11.3 8.0 61 3.7 SW 19 22 10 12 1018.5 1018.4 1.0
21/05:30am 15.6 11.6 8.9 64 3.4 S 20 28 11 15 1018.3 - 1.0
21/05:00am 15.6 11.0 9.8 68 3.0 SSW 24 30 13 16 1018.2 - 1.0
21/04:30am 15.8 11.5 10.9 72 2.6 SSW 24 32 13 17 1018.0 - 1.0
21/04:00am 15.3 11.8 10.1 71 2.7 SSW 19 26 10 14 1017.7 - 1.0
21/03:30am 15.3 13.0 11.8 79 1.9 ESE 15 24 8 13 1017.6 - 1.0
21/03:00am 15.3 12.1 12.0 81 1.8 SSE 20 30 11 16 1017.6 1017.5 0.8
21/02:30am 15.7 12.6 12.2 80 1.9 SSE 20 33 11 18 1017.5 - 0.4
21/02:00am 16.5 13.3 9.8 64 3.5 S 17 22 9 12 1017.3 - 0.2
21/01:30am 16.3 12.1 8.4 59 4.0 SSW 20 26 11 14 1017.1 - 0.2
21/01:00am 16.6 12.7 8.6 59 4.1 SSW 19 26 10 14 1016.9 - 0.2
21/12:30am 16.6 12.9 9.3 62 3.8 S 19 26 10 14 1016.8 - 0.2
21/12:00am 16.8 13.0 9.7 63 3.7 SW 20 28 11 15 1016.8 1016.7 0.2
 
Date/Time
WST
Temp
°C
App
Temp
°C
Dew
Point
Rel
Hum
%
Delta-T
°C
Wind Press
QNH
hPa
Press
MSL
hPa
Rain
since 9 am
mm
Dir
 
Spd
km/h
Gust
km/h
Spd
kts
Gust
kts
20/11:30pm 16.2 12.3 8.5 60 3.9 SSW 19 26 10 14 1016.8 - 0.2
20/11:00pm 16.4 12.0 9.0 61 3.8 SSW 22 30 12 16 1016.8 - 0.2
20/10:30pm 16.8 12.7 10.2 65 3.5 SSW 22 30 12 16 1016.8 - 0.2
20/10:00pm 17.0 12.6 10.4 65 3.5 S 24 30 13 16 1017.0 - 0.2
20/09:30pm 16.9 12.8 10.1 64 3.6 S 22 30 12 16 1016.8 - 0.2
20/09:00pm 16.6 12.4 9.7 63 3.6 S 22 30 12 16 1016.6 1016.5 0.2
20/08:30pm 16.7 13.0 10.3 66 3.4 SSW 20 28 11 15 1016.4 - 0.2
20/08:00pm 16.8 12.5 10.8 67 3.2 SSW 24 30 13 16 1016.4 - 0.2
20/07:30pm 16.6 12.1 10.1 65 3.4 SSW 24 33 13 18 1016.5 - 0.2
20/07:00pm 16.6 12.6 10.4 67 3.3 SSW 22 30 12 16 1016.4 - 0.2
20/06:30pm 16.5 12.4 10.0 65 3.4 SSW 22 30 12 16 1016.2 - 0.2
20/06:00pm 16.7 12.5 9.8 63 3.6 SW 22 30 12 16 1015.9 1015.8 0.2
20/05:30pm 17.3 12.7 9.7 61 4.0 SSW 24 30 13 16 1015.7 - 0.2
20/05:00pm 18.0 13.6 10.3 60 4.1 SW 24 28 13 15 1015.6 - 0.2
20/04:30pm 18.7 14.9 11.2 61 4.1 SW 22 30 12 16 1015.6 - 0.2
20/04:00pm 18.3 14.5 11.1 63 3.9 SSW 22 28 12 15 1015.6 - 0.2
20/03:30pm 18.7 14.8 10.9 60 4.2 SSW 22 28 12 15 1015.5 - 0.2
20/03:00pm 18.8 15.5 11.5 62 4.0 SSW 20 26 11 14 1015.3 1015.2 0.0
20/02:30pm 18.1 14.6 10.9 63 3.9 SSW 20 26 11 14 1015.3 - 0.0
20/02:00pm 18.2 14.4 11.2 63 3.8 SW 22 28 12 15 1015.3 - 0.0
20/01:30pm 18.3 14.3 11.7 65 3.6 SSW 24 30 13 16 1015.5 - 0.0
20/01:00pm 18.2 15.0 11.8 66 3.5 SSW 20 28 11 15 1015.7 - 0.0
20/12:30pm 17.4 15.3 12.5 73 2.7 S 15 28 8 15 1016.0 - 0.0
20/12:00pm 17.3 14.4 12.2 72 2.8 S 19 26 10 14 1016.4 1016.3 0.0
20/11:30am 17.7 15.5 12.1 69 3.1 S 15 22 8 12 1016.3 - 0.0
20/11:00am 17.4 15.1 11.9 70 3.0 SSE 15 19 8 10 1016.5 - 0.0
20/10:30am 17.3 15.1 12.2 72 2.8 SSE 15 20 8 11 1016.4 - 0.0
20/10:00am 17.1 14.3 12.6 75 2.5 S 19 24 10 13 1016.7 - 0.0
20/09:30am 16.6 13.9 13.0 79 2.0 SSE 19 28 10 15 1016.9 - 0.0
20/09:00am 15.8 13.6 14.4 91 0.8 SSE 19 28 10 15 1017.2 1017.1 12.0
20/08:30am 15.9 13.2 14.5 91 0.8 SSE 22 30 12 16 1017.1 - 12.0
20/08:00am 15.5 12.4 14.6 94 0.5 SSE 24 32 13 17 1017.0 - 11.4
20/07:30am 15.5 14.8 14.4 93 0.6 ENE 11 15 6 8 1016.8 - 9.8
20/07:00am 15.2 15.2 14.3 94 0.5 ENE 7 9 4 5 1016.9 - 9.8
20/06:30am 15.0 13.8 14.1 94 0.5 E 13 15 7 8 1016.7 - 8.4
20/06:00am 14.7 12.7 13.8 94 0.5 ENE 17 22 9 12 1016.4 1016.3 7.8
20/05:30am 14.7 12.7 13.8 94 0.5 ENE 17 24 9 13 1016.6 - 7.6
20/05:00am 15.9 13.7 14.9 94 0.6 SE 20 30 11 16 1016.4 - 6.8
20/04:30am 15.1 13.1 14.0 93 0.6 E 17 22 9 12 1016.5 - 6.2
20/04:00am 15.0 13.4 13.9 93 0.6 ENE 15 19 8 10 1016.4 - 6.2
20/03:30am 16.3 13.0 14.9 91 0.8 ESE 26 35 14 19 1016.1 - 4.8
20/03:00am 14.9 14.7 13.5 91 0.8 ENE 7 13 4 7 1016.3 1016.2 3.8
20/02:30am 15.2 15.1 13.4 89 1.0 NE 6 9 3 5 1016.4 - 1.8
20/02:00am 15.4 14.5 13.8 90 0.9 NNE 11 15 6 8 1016.6 - 0.2
20/01:30am 17.3 14.3 13.8 80 2.0 E 22 28 12 15 1016.8 - 0.0
20/01:00am 17.7 15.2 14.0 79 2.1 SSE 20 26 11 14 1016.7 - 0.0
20/12:30am 17.5 15.0 14.0 80 2.0 SSE 20 26 11 14 1016.5 - 0.0
20/12:00am 18.1 16.0 13.7 75 2.5 SSE 17 26 9 14 1016.6 1016.5 0.0
 
Date/Time
WST
Temp
°C
App
Temp
°C
Dew
Point
Rel
Hum
%
Delta-T
°C
Wind Press
QNH
hPa
Press
MSL
hPa
Rain
since 9 am
mm
Dir
 
Spd
km/h
Gust
km/h
Spd
kts
Gust
kts
19/11:30pm 18.0 15.4 13.2 73 2.7 SSE 19 24 10 13 1016.5 - 0.0
19/11:00pm 18.0 16.4 13.8 76 2.4 SSE 15 22 8 12 1016.9 - 0.0
19/10:30pm 17.7 15.9 13.3 75 2.5 SSE 15 19 8 10 1017.3 - 0.0
19/10:00pm 18.0 15.8 13.2 73 2.7 ESE 17 20 9 11 1017.5 - 0.0
19/09:30pm 18.0 15.4 13.2 73 2.7 ESE 19 24 10 13 1017.6 - 0.0
19/09:00pm 18.1 14.8 13.9 76 2.4 ESE 24 28 13 15 1017.7 1017.6 0.0
19/08:30pm 18.3 15.7 12.1 67 3.4 SSE 17 20 9 11 1017.7 - 0.0
19/08:00pm 18.4 15.9 12.3 67 3.4 SSE 17 20 9 11 1017.7 - 0.0
19/07:30pm 18.3 16.2 13.5 73 2.7 ESE 17 20 9 11 1017.8 - 0.0
19/07:00pm 18.5 15.5 12.0 66 3.6 SSE 19 22 10 12 1017.8 - 0.0
19/06:30pm 18.6 16.1 12.3 67 3.5 SSE 17 20 9 11 1017.6 - 0.0
19/06:00pm 18.5 15.8 11.8 65 3.7 S 17 24 9 13 1017.5 1017.4 0.0
19/05:30pm 18.5 15.3 11.3 63 3.9 S 19 24 10 13 1017.4 - 0.0
19/05:00pm 18.9 16.3 12.0 64 3.8 S 17 22 9 12 1017.3 - 0.0
19/04:30pm 18.9 15.8 11.6 62 4.0 S 19 24 10 13 1017.1 - 0.0
19/04:00pm 19.4 16.2 11.4 60 4.4 S 19 24 10 13 1017.3 - 0.0
19/03:30pm 19.7 16.6 11.5 59 4.5 S 19 24 10 13 1017.4 - 0.0
19/03:00pm 19.8 16.6 11.2 57 4.7 S 19 24 10 13 1017.4 1017.3 0.0
19/02:30pm 20.1 16.9 11.4 57 4.8 S 19 24 10 13 1017.5 - 0.0
19/02:00pm 21.1 17.8 10.9 52 5.6 S 19 24 10 13 1017.5 - 0.0
19/01:30pm 20.6 17.5 11.6 56 5.0 S 19 24 10 13 1017.7 - 0.0
19/01:00pm 20.9 18.0 12.4 58 4.8 S 19 26 10 14 1017.9 - 0.0
19/12:30pm 20.0 16.9 11.7 59 4.6 S 19 26 10 14 1018.4 - 0.0
19/12:00pm 19.5 16.9 12.1 62 4.1 S 17 24 9 13 1018.9 1018.8 0.0
19/11:30am 19.7 16.6 11.5 59 4.5 S 19 22 10 12 1019.1 - 0.0
19/11:00am 19.3 16.3 10.8 58 4.6 S 17 24 9 13 1019.3 - 0.0
19/10:30am 19.4 16.5 11.1 58 4.5 S 17 24 9 13 1019.5 - 0.0
19/10:00am 19.3 16.3 10.6 57 4.7 S 17 22 9 12 1019.7 - 0.0
19/09:30am 19.2 16.0 11.1 59 4.4 S 19 26 10 14 1019.9 - 0.0
19/09:00am 18.8 15.5 11.5 62 4.0 S 20 28 11 15 1020.0 1019.9 0.0
19/08:30am 18.5 15.1 11.1 62 4.0 S 20 26 11 14 1020.0 - 0.0
19/08:00am 18.2 14.5 11.4 64 3.7 S 22 32 12 17 1019.9 - 0.0
19/07:30am 18.1 14.1 11.9 67 3.4 SSW 24 30 13 16 1019.7 - 0.0
19/07:00am 18.0 14.7 11.6 66 3.5 S 20 28 11 15 1019.3 - 0.0
19/06:30am 18.1 14.7 12.5 70 3.1 SSW 22 30 12 16 1019.2 - 0.0
19/06:00am 18.1 14.2 13.3 73 2.7 S 26 33 14 18 1019.2 1019.1 0.0
19/05:30am 18.4 15.3 11.6 64 3.7 S 19 24 10 13 1019.1 - 0.0
19/05:00am 18.0 15.2 11.2 64 3.7 S 17 24 9 13 1018.8 - 0.0
19/04:30am 18.2 15.0 11.4 64 3.7 S 19 22 10 12 1018.8 - 0.0
19/04:00am 18.1 14.6 10.2 60 4.2 S 19 22 10 12 1018.8 - 0.0
19/03:30am 18.1 15.5 11.9 67 3.4 SSE 17 22 9 12 1018.8 - 0.0
19/03:00am 18.2 16.2 12.8 71 3.0 SSE 15 20 8 11 1019.0 1018.9 0.0
19/02:30am 18.0 16.1 13.0 72 2.8 SSE 15 20 8 11 1019.3 - 0.0
19/02:00am 18.0 15.8 13.2 73 2.7 SE 17 20 9 11 1019.3 - 0.0
19/01:30am 17.8 15.6 13.4 75 2.5 SE 17 20 9 11 1019.5 - 0.0
19/01:00am 17.9 15.8 13.7 76 2.4 SE 17 20 9 11 1019.6 - 0.0
19/12:30am 18.0 15.6 12.8 71 2.9 SSE 17 20 9 11 1019.8 - 0.0
19/12:00am 18.0 15.9 13.6 75 2.5 S 17 22 9 12 1020.1 1020.0 0.0
 
Date/Time
WST
Temp
°C
App
Temp
°C
Dew
Point
Rel
Hum
%
Delta-T
°C
Wind Press
QNH
hPa
Press
MSL
hPa
Rain
since 9 am
mm
Dir
 
Spd
km/h
Gust
km/h
Spd
kts
Gust
kts
18/11:30pm 17.9 15.6 12.9 72 2.8 S 17 20 9 11 1020.3 - 0.0
18/11:00pm 18.0 15.8 13.4 74 2.6 S 17 20 9 11 1020.6 - 0.0
18/10:30pm 18.1 15.6 13.5 74 2.6 S 19 22 10 12 1020.8 - 0.0
18/10:00pm 18.2 16.4 13.4 73 2.7 S 15 20 8 11 1020.9 - 0.0
18/09:30pm 18.1 15.8 13.1 72 2.8 S 17 20 9 11 1021.1 - 0.0
18/09:00pm 18.3 15.7 13.3 72 2.8 S 19 24 10 13 1021.1 1021.0 0.0
18/08:30pm 18.6 16.2 13.7 73 2.8 SSW 19 26 10 14 1021.1 - 0.0
18/08:00pm 18.6 16.2 13.7 73 2.8 S 19 24 10 13 1021.0 - 0.0
18/07:30pm 18.6 16.0 13.1 70 3.1 S 19 22 10 12 1021.0 - 0.0
18/07:00pm 18.4 16.1 11.8 65 3.6 S 15 19 8 10 1020.7 - 0.0
18/06:30pm 18.2 15.9 11.8 66 3.5 SSW 15 19 8 10 1020.5 - 0.0
18/06:00pm 18.6 16.4 12.1 66 3.6 SSW 15 19 8 10 1020.2 1020.1 0.0
18/05:30pm 19.4 17.5 11.8 61 4.2 SSW 13 19 7 10 1020.1 - 0.0
18/05:00pm 20.2 18.3 11.7 58 4.7 SSW 13 19 7 10 1020.0 - 0.0
18/04:30pm 20.4 18.5 11.7 57 4.8 SW 13 17 7 9 1019.9 - 0.0
18/04:00pm 20.9 18.4 12.4 58 4.8 WSW 17 20 9 11 1020.0 - 0.0
18/03:30pm 21.1 19.6 15.2 69 3.5 SW 17 22 9 12 1020.2 - 0.0

Other Formats:

Comma delimited format used in spreadsheet applications
http://www.bom.gov.au/fwo/IDW60801/IDW60801.94601.axf

JavaScript Object Notation format (JSON) in row-major order
http://www.bom.gov.au/fwo/IDW60801/IDW60801.94601.json